createdAt,value
2023-04-03T00:04:54.871Z,13.76
2023-04-03T00:10:00.066Z,13.83
2023-04-03T00:15:05.618Z,13.94
2023-04-03T00:20:11.706Z,14.06
2023-04-03T00:25:16.990Z,14.18
2023-04-03T00:30:24.202Z,14.32
2023-04-03T00:35:30.655Z,14.44
2023-04-03T00:40:41.205Z,14.58
2023-04-03T00:45:51.542Z,14.70
2023-04-03T00:50:58.475Z,14.80
2023-04-03T00:56:04.258Z,14.84
2023-04-03T01:01:15.978Z,14.83
2023-04-03T01:06:28.996Z,14.91
2023-04-03T01:11:42.540Z,14.97
2023-04-03T01:16:56.090Z,15.04
2023-04-03T01:22:38.650Z,15.07
2023-04-03T01:27:43.920Z,15.09
2023-04-03T01:32:49.482Z,15.13
2023-04-03T01:37:56.582Z,15.14
2023-04-03T01:43:03.242Z,15.19
2023-04-03T01:48:08.701Z,15.27
2023-04-03T01:53:15.239Z,15.28
2023-04-03T01:58:20.674Z,15.32
2023-04-03T02:03:27.936Z,15.37
2023-04-03T02:08:34.345Z,15.37
2023-04-03T02:13:39.765Z,15.42
2023-04-03T02:18:45.962Z,15.45
2023-04-03T02:23:51.684Z,15.51
2023-04-03T02:28:57.150Z,15.58
2023-04-03T02:34:02.661Z,15.65
2023-04-03T02:39:08.241Z,15.83
2023-04-03T02:44:16.823Z,16.02
2023-04-03T02:49:22.780Z,16.20
2023-04-03T02:54:31.871Z,16.37
2023-04-03T02:59:44.255Z,16.63
2023-04-03T03:04:50.394Z,16.80
2023-04-03T03:09:55.644Z,17.05
2023-04-03T03:15:01.882Z,17.22
2023-04-03T03:20:08.542Z,17.34
2023-04-03T03:25:14.175Z,17.45
2023-04-03T03:30:18.764Z,17.64
2023-04-03T03:35:25.603Z,17.84
2023-04-03T03:40:30.514Z,18.03
2023-04-03T03:45:36.424Z,18.21
2023-04-03T03:50:42.061Z,18.52
2023-04-03T03:55:48.895Z,18.69
2023-04-03T04:00:56.006Z,18.90
2023-04-03T04:06:03.195Z,19.05
2023-04-03T04:11:08.966Z,19.18
2023-04-03T04:16:15.943Z,19.33
2023-04-03T04:21:21.970Z,19.35
2023-04-03T04:26:30.016Z,19.36
2023-04-03T04:31:35.538Z,19.37
2023-04-03T04:36:44.368Z,19.44
2023-04-03T04:41:50.000Z,19.61
2023-04-03T04:46:55.360Z,19.86
2023-04-03T04:52:00.606Z,20.01
2023-04-03T04:57:09.242Z,20.08
2023-04-03T05:02:14.872Z,20.21
2023-04-03T05:07:22.360Z,20.19
2023-04-03T05:12:27.824Z,20.12
2023-04-03T05:17:39.229Z,20.01
2023-04-03T05:22:48.532Z,19.86
2023-04-03T05:27:54.113Z,19.68
2023-04-03T05:32:59.530Z,19.53
2023-04-03T05:38:24.842Z,19.32
2023-04-03T05:43:32.094Z,19.13
2023-04-03T05:48:37.667Z,18.98
2023-04-03T05:53:43.969Z,18.90
2023-04-03T05:58:50.657Z,18.84
2023-04-03T06:03:57.362Z,18.84
2023-04-03T06:09:04.465Z,18.86
2023-04-03T06:14:12.035Z,18.82
2023-04-03T06:19:18.372Z,18.79
2023-04-03T06:24:28.557Z,18.82
2023-04-03T06:29:34.363Z,18.87
2023-04-03T06:34:39.612Z,18.96
2023-04-03T06:39:45.358Z,19.05
2023-04-03T06:44:50.858Z,19.09
2023-04-03T06:49:56.048Z,19.09
2023-04-03T06:55:02.026Z,19.08
2023-04-03T07:00:09.547Z,19.08
2023-04-03T07:05:15.441Z,19.05
2023-04-03T07:10:21.170Z,19.05
2023-04-03T07:15:27.209Z,19.02
2023-04-03T07:20:32.342Z,18.97
2023-04-03T07:25:37.838Z,18.95
2023-04-03T07:30:48.314Z,18.97
2023-04-03T07:35:53.755Z,18.95
2023-04-03T07:40:59.154Z,18.94
2023-04-03T07:46:07.537Z,18.92
2023-04-03T07:51:13.133Z,18.90
2023-04-03T07:56:19.319Z,18.90
2023-04-03T08:01:24.618Z,18.90
2023-04-03T08:06:44.871Z,18.86
2023-04-03T08:11:51.589Z,18.82
2023-04-03T08:16:56.945Z,18.78
2023-04-03T08:22:03.087Z,18.71
2023-04-03T08:27:08.243Z,18.64
2023-04-03T08:32:13.766Z,18.60
2023-04-03T08:37:19.508Z,18.54
2023-04-03T08:42:27.133Z,18.51
2023-04-03T08:47:44.080Z,18.45
2023-04-03T08:52:56.469Z,18.38
2023-04-03T08:58:18.414Z,18.32
2023-04-03T09:03:26.130Z,18.27
2023-04-03T09:08:47.127Z,18.23
2023-04-03T09:14:03.361Z,18.20
2023-04-03T09:19:18.879Z,18.16
2023-04-03T09:24:26.788Z,18.12
2023-04-03T09:29:32.078Z,18.08
2023-04-03T09:34:42.629Z,18.04
2023-04-03T09:39:56.470Z,17.99
2023-04-03T09:45:08.012Z,17.95
2023-04-03T09:50:16.181Z,17.91
2023-04-03T09:55:29.208Z,17.85
2023-04-03T10:00:41.512Z,17.77
2023-04-03T10:05:47.038Z,17.68
2023-04-03T10:11:12.138Z,17.61
2023-04-03T10:16:26.801Z,17.55
2023-04-03T10:21:45.125Z,17.49
2023-04-03T10:27:04.571Z,17.41
2023-04-03T10:32:30.414Z,17.34
2023-04-03T10:37:50.509Z,17.25
2023-04-03T10:43:07.614Z,17.18
2023-04-03T10:48:37.048Z,17.10
2023-04-03T10:54:00.462Z,17.03
2023-04-03T10:59:14.212Z,16.98
2023-04-03T11:04:22.226Z,16.93
2023-04-03T11:09:31.803Z,16.89
2023-04-03T11:14:42.329Z,16.82
2023-04-03T11:20:08.944Z,16.80
2023-04-03T11:25:14.323Z,16.76
2023-04-03T11:30:23.221Z,16.72
2023-04-03T11:35:29.926Z,16.68
2023-04-03T11:40:39.494Z,16.61
2023-04-03T11:46:04.469Z,16.56
2023-04-03T11:51:18.575Z,16.51
2023-04-03T11:56:29.759Z,16.47
2023-04-03T12:01:51.742Z,16.42
2023-04-03T12:07:06.553Z,16.39
2023-04-03T12:12:44.049Z,16.34
2023-04-03T12:17:49.770Z,16.28
2023-04-03T12:23:26.482Z,16.28
2023-04-03T12:28:32.035Z,16.23
2023-04-03T12:33:51.892Z,16.24
2023-04-03T12:38:58.019Z,16.19
2023-04-03T12:44:20.862Z,16.15
2023-04-03T12:49:32.743Z,16.07
2023-04-03T12:54:55.068Z,15.99
2023-04-03T13:00:02.298Z,15.93
2023-04-03T13:05:16.822Z,15.86
2023-04-03T13:10:23.214Z,15.84
2023-04-03T13:15:42.736Z,15.80
2023-04-03T13:20:52.328Z,15.78
2023-04-03T13:26:00.666Z,15.73
2023-04-03T13:31:21.883Z,15.71
2023-04-03T13:36:36.726Z,15.67
2023-04-03T13:41:48.481Z,15.66
2023-04-03T13:46:58.170Z,15.64
2023-04-03T13:52:08.226Z,15.59
2023-04-03T13:57:19.105Z,15.57
2023-04-03T14:02:37.715Z,15.51
2023-04-03T14:07:45.707Z,15.48
2023-04-03T14:12:56.244Z,15.45
2023-04-03T14:18:04.983Z,15.43
2023-04-03T14:23:13.542Z,15.42
2023-04-03T14:28:24.796Z,15.40
2023-04-03T14:33:33.434Z,15.37
2023-04-03T14:38:38.799Z,15.35
2023-04-03T14:43:46.247Z,15.32
2023-04-03T14:48:51.459Z,15.28
2023-04-03T14:53:58.291Z,15.23
2023-04-03T14:59:04.729Z,15.14
2023-04-03T15:04:22.366Z,15.09
2023-04-03T15:09:31.273Z,15.07
2023-04-03T15:14:42.323Z,15.02
2023-04-03T15:19:53.424Z,14.93
2023-04-03T15:24:58.701Z,14.88
2023-04-03T15:30:04.245Z,14.84
2023-04-03T15:35:11.643Z,14.81
2023-04-03T15:40:17.270Z,14.73
2023-04-03T15:45:23.745Z,14.74
2023-04-03T15:50:29.498Z,14.73
2023-04-03T15:55:37.580Z,14.69
2023-04-03T16:00:43.670Z,14.66
2023-04-03T16:05:49.857Z,14.64
2023-04-03T16:10:55.491Z,14.58
2023-04-03T16:16:02.324Z,14.56
2023-04-03T16:21:10.467Z,14.53
2023-04-03T16:26:16.232Z,14.55
2023-04-03T16:31:21.930Z,14.56
2023-04-03T16:36:28.130Z,14.55
2023-04-03T16:41:33.415Z,14.52
2023-04-03T16:46:38.741Z,14.53
2023-04-03T16:51:43.909Z,14.54
2023-04-03T16:56:49.090Z,14.56
2023-04-03T17:01:54.314Z,14.55
2023-04-03T17:06:59.923Z,14.53
2023-04-03T17:12:05.519Z,14.50
2023-04-03T17:17:11.000Z,14.44
2023-04-03T17:22:18.222Z,14.39
2023-04-03T17:27:23.333Z,14.36
2023-04-03T17:32:28.557Z,14.32
2023-04-03T17:37:33.908Z,14.29
2023-04-03T17:42:39.031Z,14.30
2023-04-03T17:47:44.291Z,14.30
2023-04-03T17:52:49.522Z,14.29
2023-04-03T17:57:54.652Z,14.27
2023-04-03T18:03:00.488Z,14.23
2023-04-03T18:08:06.188Z,14.23
2023-04-03T18:13:12.017Z,14.15
2023-04-03T18:18:17.369Z,14.11
2023-04-03T18:23:22.638Z,14.09
2023-04-03T18:28:29.407Z,14.07
2023-04-03T18:33:34.873Z,14.04
2023-04-03T18:38:41.164Z,14.01
2023-04-03T18:43:46.474Z,13.95
2023-04-03T18:48:52.065Z,13.92
2023-04-03T18:53:57.220Z,13.91
2023-04-03T18:59:02.346Z,13.88
2023-04-03T19:04:07.848Z,13.85
2023-04-03T19:09:12.991Z,13.82
2023-04-03T19:14:18.099Z,13.77
2023-04-03T19:19:23.184Z,13.75
2023-04-03T19:24:28.363Z,13.72
2023-04-03T19:29:33.910Z,13.72
2023-04-03T19:34:39.150Z,13.71
2023-04-03T19:39:44.094Z,13.70
2023-04-03T19:44:50.765Z,13.67
2023-04-03T19:49:55.769Z,13.65
2023-04-03T19:55:00.893Z,13.67
2023-04-03T20:00:06.532Z,13.61
2023-04-03T20:05:15.518Z,13.59
2023-04-03T20:10:20.819Z,13.52
2023-04-03T20:15:27.498Z,13.47
2023-04-03T20:20:32.636Z,13.50
2023-04-03T20:25:54.151Z,13.43
2023-04-03T20:31:09.143Z,13.34
2023-04-03T20:36:14.627Z,13.29
2023-04-03T20:41:20.133Z,13.34
2023-04-03T20:46:42.236Z,13.37
2023-04-03T20:51:54.747Z,13.40
2023-04-03T20:57:00.470Z,13.42
2023-04-03T21:02:05.928Z,13.40
2023-04-03T21:07:48.113Z,13.39
2023-04-03T21:13:29.692Z,13.37
2023-04-03T21:18:53.808Z,13.32
2023-04-03T21:23:59.129Z,13.25
2023-04-03T21:29:04.643Z,13.15
2023-04-03T21:34:09.784Z,13.14
2023-04-03T21:39:14.901Z,13.15
2023-04-03T21:44:23.548Z,13.11
2023-04-03T21:49:28.651Z,13.08
2023-04-03T21:54:34.444Z,13.12
2023-04-03T21:59:40.647Z,13.10
2023-04-03T22:04:47.008Z,13.09
2023-04-03T22:09:52.604Z,13.06
2023-04-03T22:14:57.859Z,13.10
2023-04-03T22:20:03.186Z,13.10
2023-04-03T22:25:09.414Z,13.12
2023-04-03T22:30:15.076Z,13.15
2023-04-03T22:35:20.217Z,13.12
2023-04-03T22:40:24.872Z,13.07
2023-04-03T22:45:30.049Z,13.11
2023-04-03T22:50:38.383Z,13.13
2023-04-03T22:55:43.623Z,13.16
2023-04-03T23:00:48.920Z,13.16
2023-04-03T23:05:55.004Z,13.15
2023-04-03T23:11:01.141Z,13.12
2023-04-03T23:16:06.873Z,13.06
2023-04-03T23:21:12.247Z,13.05
2023-04-03T23:26:17.321Z,13.07
2023-04-03T23:31:22.776Z,13.10
2023-04-03T23:36:27.790Z,13.17
2023-04-03T23:41:32.851Z,13.21
2023-04-03T23:46:37.958Z,13.24
2023-04-03T23:51:42.956Z,13.26
2023-04-03T23:56:48.015Z,13.29
